createdAt,value
2022-11-15T00:00:31.576Z,15.38
2022-11-15T00:03:35.360Z,16.27
2022-11-15T00:06:38.995Z,15.93
2022-11-15T00:09:45.994Z,17.60
2022-11-15T00:12:49.961Z,16.75
2022-11-15T00:15:53.340Z,15.00
2022-11-15T00:18:57.860Z,17.15
2022-11-15T00:22:01.580Z,16.77
2022-11-15T00:25:06.234Z,16.65
2022-11-15T00:28:10.108Z,18.00
2022-11-15T00:31:14.968Z,16.13
2022-11-15T00:34:18.810Z,17.13
2022-11-15T00:40:26.204Z,16.98
2022-11-15T00:43:30.738Z,17.08
2022-11-15T00:46:34.779Z,17.38
2022-11-15T00:49:38.903Z,17.92
2022-11-15T00:52:43.054Z,18.55
2022-11-15T00:55:47.019Z,17.00
2022-11-15T00:58:50.753Z,17.33
2022-11-15T01:01:54.632Z,17.80
2022-11-15T01:04:58.439Z,16.15
2022-11-15T01:08:02.553Z,15.90
2022-11-15T01:11:10.260Z,16.33
2022-11-15T01:14:14.321Z,16.42
2022-11-15T01:17:17.870Z,16.42
2022-11-15T01:20:21.825Z,16.58
2022-11-15T01:23:25.854Z,16.50
2022-11-15T01:26:29.622Z,13.48
2022-11-15T01:29:33.465Z,15.48
2022-11-15T01:35:40.699Z,13.60
2022-11-15T01:38:44.802Z,14.02
2022-11-15T01:41:48.250Z,14.55
2022-11-15T01:44:55.127Z,14.25
2022-11-15T01:47:58.757Z,15.27
2022-11-15T01:51:08.467Z,13.90
2022-11-15T01:54:16.736Z,16.17
2022-11-15T01:57:20.917Z,13.73
2022-11-15T02:00:25.034Z,14.90
2022-11-15T02:03:42.225Z,14.23
2022-11-15T02:06:48.638Z,14.85
2022-11-15T02:09:54.966Z,14.15
2022-11-15T02:13:00.922Z,14.98
2022-11-15T02:16:25.762Z,15.60
2022-11-15T02:19:40.134Z,14.93
2022-11-15T02:23:13.760Z,15.40
2022-11-15T02:26:44.674Z,13.27
2022-11-15T02:30:00.484Z,14.32
2022-11-15T02:33:22.924Z,13.57
2022-11-15T02:37:03.150Z,13.50
2022-11-15T02:40:25.268Z,13.13
2022-11-15T02:43:54.951Z,13.80
2022-11-15T02:47:14.540Z,14.18
2022-11-15T02:50:20.929Z,14.32
2022-11-15T02:53:25.861Z,14.20
2022-11-15T02:56:29.314Z,13.98
2022-11-15T02:59:55.088Z,14.05
2022-11-15T03:03:48.807Z,12.88
2022-11-15T03:07:12.056Z,15.07
2022-11-15T03:10:26.970Z,15.05
2022-11-15T03:13:39.298Z,14.48
2022-11-15T03:17:13.223Z,14.95
2022-11-15T03:20:18.622Z,14.40
2022-11-15T03:23:22.876Z,14.32
2022-11-15T03:26:28.511Z,14.65
2022-11-15T03:29:37.875Z,16.35
2022-11-15T03:32:47.742Z,15.95
2022-11-15T03:35:53.288Z,15.23
2022-11-15T03:39:02.798Z,15.80
2022-11-15T03:42:39.808Z,14.98
2022-11-15T03:46:01.484Z,16.00
2022-11-15T03:49:15.941Z,14.57
2022-11-15T03:52:21.424Z,15.20
2022-11-15T03:55:25.429Z,16.58
2022-11-15T03:58:29.153Z,15.45
2022-11-15T04:01:33.372Z,15.75
2022-11-15T04:04:37.439Z,17.08
2022-11-15T04:07:41.306Z,15.88
2022-11-15T04:10:44.986Z,19.98
2022-11-15T04:13:48.756Z,17.95
2022-11-15T04:16:52.722Z,17.80
2022-11-15T04:20:14.921Z,18.98
2022-11-15T04:23:39.747Z,17.50
2022-11-15T04:26:43.722Z,17.38
2022-11-15T04:29:47.758Z,16.73
2022-11-15T04:32:51.571Z,18.27
2022-11-15T04:36:14.202Z,17.40
2022-11-15T04:39:18.029Z,16.95
2022-11-15T04:42:21.881Z,18.33
2022-11-15T04:45:25.770Z,18.85
2022-11-15T04:48:33.091Z,18.35
2022-11-15T04:51:36.699Z,19.00
2022-11-15T04:54:42.487Z,18.80
2022-11-15T04:57:46.400Z,19.75
2022-11-15T05:00:50.248Z,19.02
2022-11-15T05:04:12.507Z,19.15
2022-11-15T05:07:16.360Z,20.88
2022-11-15T05:13:23.343Z,18.80
2022-11-15T05:16:27.176Z,18.75
2022-11-15T05:19:31.150Z,18.75
2022-11-15T05:25:38.294Z,18.65
2022-11-15T05:28:42.092Z,17.05
2022-11-15T05:31:46.071Z,19.95
2022-11-15T05:34:50.115Z,18.58
2022-11-15T05:37:53.794Z,19.40
2022-11-15T05:40:57.803Z,18.65
2022-11-15T05:44:04.103Z,18.38
2022-11-15T05:47:10.651Z,20.10
2022-11-15T05:50:17.267Z,18.00
2022-11-15T05:53:23.550Z,19.50
2022-11-15T05:56:27.423Z,20.02
2022-11-15T05:59:32.329Z,17.77
2022-11-15T06:02:36.279Z,18.75
2022-11-15T06:05:41.074Z,19.42
2022-11-15T06:08:44.815Z,18.85
2022-11-15T06:11:50.577Z,19.23
2022-11-15T06:14:54.247Z,18.63
2022-11-15T06:17:58.195Z,18.88
2022-11-15T06:21:02.492Z,17.48
2022-11-15T06:24:06.681Z,17.95
2022-11-15T06:27:11.799Z,21.23
2022-11-15T06:30:15.634Z,20.33
2022-11-15T06:33:22.353Z,19.27
2022-11-15T06:36:27.374Z,22.90
2022-11-15T06:39:31.402Z,24.83
2022-11-15T06:42:35.451Z,27.42
2022-11-15T06:45:39.644Z,23.15
2022-11-15T06:48:44.472Z,22.75
2022-11-15T06:51:48.844Z,19.90
2022-11-15T06:54:55.151Z,20.60
2022-11-15T07:01:40.887Z,18.55
2022-11-15T07:04:44.938Z,18.38
2022-11-15T07:07:58.261Z,17.63
2022-11-15T07:11:04.723Z,19.20
2022-11-15T07:14:11.105Z,17.98
2022-11-15T07:17:17.814Z,17.80
2022-11-15T07:20:46.626Z,19.58
2022-11-15T07:23:54.004Z,17.73
2022-11-15T07:26:57.910Z,17.80
2022-11-15T07:30:04.260Z,18.15
2022-11-15T07:33:08.348Z,17.65
2022-11-15T07:36:13.582Z,17.15
2022-11-15T07:39:17.543Z,17.05
2022-11-15T07:42:42.455Z,18.58
2022-11-15T07:45:57.547Z,19.55
2022-11-15T08:03:06.342Z,16.90
2022-11-15T08:06:25.200Z,17.50
2022-11-15T08:09:28.766Z,19.50
2022-11-15T08:12:35.419Z,18.67
2022-11-15T08:15:40.130Z,17.88
2022-11-15T08:18:43.643Z,18.13
2022-11-15T08:21:59.891Z,17.25
2022-11-15T08:25:07.337Z,16.90
2022-11-15T08:28:12.137Z,17.55
2022-11-15T08:31:18.706Z,19.85
2022-11-15T08:34:22.859Z,17.65
2022-11-15T08:37:30.839Z,19.38
2022-11-15T08:40:35.299Z,19.13
2022-11-15T08:43:48.419Z,17.52
2022-11-15T08:47:24.607Z,16.92
2022-11-15T08:50:29.912Z,17.30
2022-11-15T08:53:35.624Z,16.75
2022-11-15T09:00:12.180Z,17.92
2022-11-15T09:03:55.982Z,19.38
2022-11-15T09:07:02.789Z,18.20
2022-11-15T09:10:07.691Z,15.93
2022-11-15T09:13:11.335Z,15.55
2022-11-15T09:16:15.704Z,14.93
2022-11-15T09:19:19.963Z,14.93
2022-11-15T09:22:23.850Z,13.05
2022-11-15T09:25:50.387Z,11.68
2022-11-15T09:28:55.461Z,11.02
2022-11-15T09:32:01.215Z,11.90
2022-11-15T09:35:06.171Z,11.40
2022-11-15T09:38:10.633Z,10.73
2022-11-15T09:41:44.269Z,9.52
2022-11-15T09:45:14.485Z,10.23
2022-11-15T09:48:52.245Z,10.68
2022-11-15T09:52:03.736Z,11.07
2022-11-15T09:54:55.079Z,10.63
2022-11-15T09:57:54.955Z,9.40
2022-11-15T10:00:47.672Z,11.00
2022-11-15T10:03:42.514Z,11.43
2022-11-15T10:06:27.887Z,10.25
2022-11-15T10:09:17.934Z,11.05
2022-11-15T10:12:07.862Z,10.52
2022-11-15T10:15:12.957Z,10.90
2022-11-15T10:18:07.396Z,10.63
2022-11-15T10:20:59.653Z,11.77
2022-11-15T10:23:44.683Z,12.88
2022-11-15T10:26:29.642Z,11.88
2022-11-15T10:29:27.097Z,12.23
2022-11-15T10:32:14.263Z,13.05
2022-11-15T10:35:01.342Z,12.48
2022-11-15T10:37:46.380Z,12.70
2022-11-15T10:40:32.510Z,12.63
2022-11-15T10:43:19.880Z,12.95
2022-11-15T10:46:46.161Z,12.90
2022-11-15T10:49:35.436Z,13.27
2022-11-15T10:52:22.724Z,11.93
2022-11-15T10:55:17.107Z,12.30
2022-11-15T10:58:06.376Z,12.18
2022-11-15T11:00:54.007Z,12.93
2022-11-15T11:03:43.839Z,12.35
2022-11-15T11:06:30.441Z,12.02
2022-11-15T11:09:24.338Z,12.02
2022-11-15T11:12:34.994Z,12.07
2022-11-15T11:15:29.812Z,10.55
2022-11-15T11:19:01.349Z,10.60
2022-11-15T11:22:02.642Z,10.90
2022-11-15T11:25:52.568Z,10.75
2022-11-15T11:29:28.778Z,10.75
2022-11-15T11:32:52.531Z,10.07
2022-11-15T11:36:21.390Z,9.43
2022-11-15T11:39:22.306Z,10.20
2022-11-15T11:47:09.696Z,12.52
2022-11-15T11:50:29.973Z,11.77
2022-11-15T11:53:40.421Z,10.93
2022-11-15T11:56:37.440Z,10.20
2022-11-15T12:02:57.655Z,9.70
2022-11-15T12:06:07.048Z,10.05
2022-11-15T12:11:55.422Z,11.35
2022-11-15T12:14:59.458Z,11.30
2022-11-15T12:17:46.711Z,11.77
2022-11-15T12:20:38.298Z,11.80
2022-11-15T12:23:31.629Z,11.07
2022-11-15T12:26:29.047Z,11.77
2022-11-15T12:29:28.421Z,12.63
2022-11-15T12:32:31.251Z,13.85
2022-11-15T12:35:38.099Z,12.75
2022-11-15T12:38:49.121Z,13.13
2022-11-15T12:41:37.945Z,11.77
2022-11-15T12:44:32.287Z,11.75
2022-11-15T12:47:26.548Z,11.43
2022-11-15T12:50:14.287Z,12.20
2022-11-15T12:53:27.975Z,11.82
2022-11-15T12:56:12.840Z,13.02
2022-11-15T12:59:02.682Z,11.32
2022-11-15T13:01:48.170Z,11.77
2022-11-15T13:04:33.100Z,13.48
2022-11-15T13:07:51.262Z,12.68
2022-11-15T13:10:36.307Z,12.20
2022-11-15T13:13:44.563Z,12.60
2022-11-15T13:16:29.499Z,13.35
2022-11-15T13:19:15.019Z,13.32
2022-11-15T13:22:18.162Z,12.13
2022-11-15T13:25:06.728Z,13.07
2022-11-15T13:27:52.166Z,12.73
2022-11-15T13:30:38.199Z,12.35
2022-11-15T13:33:36.393Z,11.93
2022-11-15T13:36:26.183Z,11.77
2022-11-15T13:39:34.518Z,11.40
2022-11-15T13:42:21.392Z,11.57
2022-11-15T13:45:15.113Z,12.57
2022-11-15T13:48:03.482Z,12.38
2022-11-15T13:50:48.344Z,12.52
2022-11-15T13:53:35.595Z,11.98
2022-11-15T13:56:21.187Z,12.52
2022-11-15T13:59:27.280Z,13.05
2022-11-15T14:02:18.370Z,12.13
2022-11-15T14:05:06.293Z,12.23
2022-11-15T14:08:04.454Z,12.93
2022-11-15T14:11:07.511Z,14.23
2022-11-15T14:14:08.044Z,13.68
2022-11-15T14:16:55.540Z,13.60
2022-11-15T14:19:40.598Z,14.85
2022-11-15T14:22:28.595Z,15.15
